sensor_id;sensor_type;location;lat;lon;timestamp;pressure;altitude;pressure_sealevel;temperature;humidity
10135;BME280;5107;48.850;8.924;2022-07-23T00:00:21;96850.91;;;24.14;50.65
10135;BME280;5107;48.850;8.924;2022-07-23T00:02:50;96837.13;;;24.11;50.96
10135;BME280;5107;48.850;8.924;2022-07-23T00:05:17;96837.66;;;24.08;50.97
10135;BME280;5107;48.850;8.924;2022-07-23T00:07:44;96846.22;;;24.05;51.22
10135;BME280;5107;48.850;8.924;2022-07-23T00:10:11;96842.44;;;24.01;51.35
10135;BME280;5107;48.850;8.924;2022-07-23T00:12:39;96835.91;;;23.97;51.68
10135;BME280;5107;48.850;8.924;2022-07-23T00:15:08;96821.09;;;23.94;51.25
10135;BME280;5107;48.850;8.924;2022-07-23T00:17:35;96827.22;;;23.90;51.35
10135;BME280;5107;48.850;8.924;2022-07-23T00:20:05;96837.66;;;23.86;51.69
10135;BME280;5107;48.850;8.924;2022-07-23T00:22:33;96833.06;;;23.81;51.82
10135;BME280;5107;48.850;8.924;2022-07-23T00:25:00;96825.72;;;23.77;52.10
10135;BME280;5107;48.850;8.924;2022-07-23T00:27:27;96827.53;;;23.71;52.46
10135;BME280;5107;48.850;8.924;2022-07-23T00:29:54;96824.22;;;23.64;52.90
10135;BME280;5107;48.850;8.924;2022-07-23T00:32:21;96817.72;;;23.60;53.04
10135;BME280;5107;48.850;8.924;2022-07-23T00:34:48;96825.97;;;23.54;53.34
10135;BME280;5107;48.850;8.924;2022-07-23T00:37:17;96825.66;;;23.50;53.46
10135;BME280;5107;48.850;8.924;2022-07-23T00:39:44;96827.69;;;23.43;53.66
10135;BME280;5107;48.850;8.924;2022-07-23T00:42:11;96821.75;;;23.41;53.93
10135;BME280;5107;48.850;8.924;2022-07-23T00:44:38;96813.38;;;23.37;53.94
10135;BME280;5107;48.850;8.924;2022-07-23T00:47:06;96802.38;;;23.39;53.42
10135;BME280;5107;48.850;8.924;2022-07-23T00:49:33;96807.75;;;23.39;53.69
10135;BME280;5107;48.850;8.924;2022-07-23T00:52:02;96813.06;;;23.34;53.76
10135;BME280;5107;48.850;8.924;2022-07-23T00:54:31;96816.22;;;23.31;53.41
10135;BME280;5107;48.850;8.924;2022-07-23T00:56:58;96815.41;;;23.30;53.83
10135;BME280;5107;48.850;8.924;2022-07-23T00:59:25;96808.66;;;23.28;53.80
10135;BME280;5107;48.850;8.924;2022-07-23T01:01:53;96812.69;;;23.25;53.89
10135;BME280;5107;48.850;8.924;2022-07-23T01:04:20;96816.66;;;23.23;54.29
10135;BME280;5107;48.850;8.924;2022-07-23T01:06:47;96816.31;;;23.19;54.37
10135;BME280;5107;48.850;8.924;2022-07-23T01:09:14;96819.00;;;23.19;54.50
10135;BME280;5107;48.850;8.924;2022-07-23T01:11:43;96819.34;;;23.23;54.44
10135;BME280;5107;48.850;8.924;2022-07-23T01:14:13;96801.34;;;23.23;54.55
10135;BME280;5107;48.850;8.924;2022-07-23T01:16:43;96802.41;;;23.22;54.38
10135;BME280;5107;48.850;8.924;2022-07-23T01:19:11;96810.13;;;23.19;54.14
10135;BME280;5107;48.850;8.924;2022-07-23T01:21:41;96812.94;;;23.07;54.81
10135;BME280;5107;48.850;8.924;2022-07-23T01:24:11;96802.63;;;22.99;54.86
10135;BME280;5107;48.850;8.924;2022-07-23T01:26:47;96786.75;;;22.97;55.18
10135;BME280;5107;48.850;8.924;2022-07-23T01:29:15;96782.25;;;23.03;55.61
10135;BME280;5107;48.850;8.924;2022-07-23T01:31:44;96771.84;;;23.06;55.08
10135;BME280;5107;48.850;8.924;2022-07-23T01:34:11;96773.53;;;23.13;55.49
10135;BME280;5107;48.850;8.924;2022-07-23T01:36:38;96782.47;;;23.18;55.49
10135;BME280;5107;48.850;8.924;2022-07-23T01:39:07;96790.03;;;23.21;55.36
10135;BME280;5107;48.850;8.924;2022-07-23T01:41:35;96791.91;;;23.21;55.37
10135;BME280;5107;48.850;8.924;2022-07-23T01:44:04;96794.59;;;23.21;55.38
10135;BME280;5107;48.850;8.924;2022-07-23T01:46:31;96788.66;;;23.19;55.53
10135;BME280;5107;48.850;8.924;2022-07-23T01:48:59;96796.03;;;23.06;54.91
10135;BME280;5107;48.850;8.924;2022-07-23T01:51:45;96802.53;;;22.94;54.98
10135;BME280;5107;48.850;8.924;2022-07-23T01:54:33;96791.97;;;22.87;55.17
10135;BME280;5107;48.850;8.924;2022-07-23T01:57:03;96782.84;;;22.88;55.08
10135;BME280;5107;48.850;8.924;2022-07-23T01:59:31;96776.09;;;22.86;54.97
10135;BME280;5107;48.850;8.924;2022-07-23T02:01:58;96774.81;;;22.88;54.68
10135;BME280;5107;48.850;8.924;2022-07-23T02:04:26;96779.84;;;22.85;54.47
10135;BME280;5107;48.850;8.924;2022-07-23T02:06:54;96793.78;;;22.82;54.75
10135;BME280;5107;48.850;8.924;2022-07-23T02:09:21;96798.50;;;22.75;54.63
10135;BME280;5107;48.850;8.924;2022-07-23T02:11:49;96812.59;;;22.70;54.79
10135;BME280;5107;48.850;8.924;2022-07-23T02:14:19;96829.69;;;22.64;55.20
10135;BME280;5107;48.850;8.924;2022-07-23T02:16:47;96834.97;;;22.59;55.46
10135;BME280;5107;48.850;8.924;2022-07-23T02:19:14;96824.38;;;22.52;55.84
10135;BME280;5107;48.850;8.924;2022-07-23T02:21:41;96824.88;;;22.49;55.98
10135;BME280;5107;48.850;8.924;2022-07-23T02:24:08;96828.91;;;22.52;56.34
10135;BME280;5107;48.850;8.924;2022-07-23T02:26:37;96835.59;;;22.49;56.40
10135;BME280;5107;48.850;8.924;2022-07-23T02:29:05;96840.63;;;22.46;56.58
10135;BME280;5107;48.850;8.924;2022-07-23T02:31:34;96843.31;;;22.46;56.50
10135;BME280;5107;48.850;8.924;2022-07-23T02:34:02;96844.59;;;22.43;56.62
10135;BME280;5107;48.850;8.924;2022-07-23T02:36:29;96846.50;;;22.43;56.62
10135;BME280;5107;48.850;8.924;2022-07-23T02:38:58;96846.50;;;22.43;56.57
10135;BME280;5107;48.850;8.924;2022-07-23T02:41:26;96846.50;;;22.43;56.48
10135;BME280;5107;48.850;8.924;2022-07-23T02:43:53;96849.41;;;22.41;56.65
10135;BME280;5107;48.850;8.924;2022-07-23T02:46:21;96858.16;;;22.37;56.41
10135;BME280;5107;48.850;8.924;2022-07-23T02:48:51;96864.50;;;22.30;56.61
10135;BME280;5107;48.850;8.924;2022-07-23T02:51:18;96877.81;;;22.25;56.82
10135;BME280;5107;48.850;8.924;2022-07-23T02:53:52;96892.50;;;22.23;57.29
10135;BME280;5107;48.850;8.924;2022-07-23T02:56:20;96893.22;;;22.18;57.49
10135;BME280;5107;48.850;8.924;2022-07-23T02:58:47;96886.72;;;22.14;57.97
10135;BME280;5107;48.850;8.924;2022-07-23T03:01:14;96886.84;;;22.08;58.27
10135;BME280;5107;48.850;8.924;2022-07-23T03:03:41;96889.19;;;22.04;58.63
10135;BME280;5107;48.850;8.924;2022-07-23T03:06:10;96891.28;;;22.02;58.53
10135;BME280;5107;48.850;8.924;2022-07-23T03:08:38;96889.41;;;22.03;58.51
10135;BME280;5107;48.850;8.924;2022-07-23T03:11:06;96896.19;;;22.05;58.33
10135;BME280;5107;48.850;8.924;2022-07-23T03:13:38;96889.41;;;22.03;58.52
10135;BME280;5107;48.850;8.924;2022-07-23T03:16:06;96882.09;;;21.98;58.75
10135;BME280;5107;48.850;8.924;2022-07-23T03:18:36;96886.25;;;21.94;58.74
10135;BME280;5107;48.850;8.924;2022-07-23T03:21:03;96888.84;;;21.89;59.40
10135;BME280;5107;48.850;8.924;2022-07-23T03:23:32;96881.03;;;21.87;59.14
10135;BME280;5107;48.850;8.924;2022-07-23T03:25:59;96884.19;;;21.84;59.43
10135;BME280;5107;48.850;8.924;2022-07-23T03:28:26;96885.34;;;21.88;59.51
10135;BME280;5107;48.850;8.924;2022-07-23T03:30:54;96879.91;;;21.83;59.17
10135;BME280;5107;48.850;8.924;2022-07-23T03:33:21;96882.22;;;21.80;59.47
10135;BME280;5107;48.850;8.924;2022-07-23T03:35:49;96888.88;;;21.77;59.00
10135;BME280;5107;48.850;8.924;2022-07-23T03:38:25;96885.84;;;21.74;59.59
10135;BME280;5107;48.850;8.924;2022-07-23T03:40:55;96888.31;;;21.75;60.25
10135;BME280;5107;48.850;8.924;2022-07-23T03:43:22;96880.16;;;21.70;59.51
10135;BME280;5107;48.850;8.924;2022-07-23T03:45:50;96894.03;;;21.67;59.86
10135;BME280;5107;48.850;8.924;2022-07-23T03:48:17;96882.38;;;21.62;59.85
10135;BME280;5107;48.850;8.924;2022-07-23T03:50:44;96883.78;;;21.52;60.44
10135;BME280;5107;48.850;8.924;2022-07-23T03:53:11;96889.47;;;21.44;60.64
10135;BME280;5107;48.850;8.924;2022-07-23T03:55:39;96890.19;;;21.40;60.64
10135;BME280;5107;48.850;8.924;2022-07-23T03:58:07;96896.84;;;21.37;60.95
10135;BME280;5107;48.850;8.924;2022-07-23T04:00:34;96896.84;;;21.37;60.95
10135;BME280;5107;48.850;8.924;2022-07-23T04:03:02;96906.72;;;21.48;60.96
10135;BME280;5107;48.850;8.924;2022-07-23T04:05:29;96904.28;;;21.58;60.89
10135;BME280;5107;48.850;8.924;2022-07-23T04:08:07;96902.75;;;21.63;61.14
10135;BME280;5107;48.850;8.924;2022-07-23T04:10:39;96894.03;;;21.55;60.41
10135;BME280;5107;48.850;8.924;2022-07-23T04:13:09;96902.06;;;21.44;61.01
10135;BME280;5107;48.850;8.924;2022-07-23T04:15:36;96895.19;;;21.36;61.37
10135;BME280;5107;48.850;8.924;2022-07-23T04:18:04;96895.09;;;21.31;60.74
10135;BME280;5107;48.850;8.924;2022-07-23T04:20:42;96894.50;;;21.29;61.06
10135;BME280;5107;48.850;8.924;2022-07-23T04:23:09;96894.41;;;21.24;61.60
10135;BME280;5107;48.850;8.924;2022-07-23T04:25:38;96891.94;;;21.23;61.92
10135;BME280;5107;48.850;8.924;2022-07-23T04:28:05;96890.75;;;21.18;61.65
10135;BME280;5107;48.850;8.924;2022-07-23T04:30:34;96890.69;;;21.25;60.68
10135;BME280;5107;48.850;8.924;2022-07-23T04:33:01;96889.25;;;21.34;59.86
10135;BME280;5107;48.850;8.924;2022-07-23T04:35:31;96895.44;;;21.46;59.20
10135;BME280;5107;48.850;8.924;2022-07-23T04:38:09;96895.53;;;21.63;58.17
10135;BME280;5107;48.850;8.924;2022-07-23T04:40:36;96890.16;;;21.75;57.77
10135;BME280;5107;48.850;8.924;2022-07-23T04:43:03;96899.22;;;21.85;57.10
10135;BME280;5107;48.850;8.924;2022-07-23T04:45:35;96891.19;;;21.97;56.30
10135;BME280;5107;48.850;8.924;2022-07-23T04:48:04;96888.50;;;22.09;55.03
10135;BME280;5107;48.850;8.924;2022-07-23T04:50:31;96889.09;;;22.27;54.13
10135;BME280;5107;48.850;8.924;2022-07-23T04:52:58;96894.78;;;22.43;53.09
10135;BME280;5107;48.850;8.924;2022-07-23T04:55:25;96902.88;;;22.59;52.72
10135;BME280;5107;48.850;8.924;2022-07-23T04:57:53;96911.41;;;22.73;52.85
10135;BME280;5107;48.850;8.924;2022-07-23T05:00:20;96908.38;;;22.69;53.14
10135;BME280;5107;48.850;8.924;2022-07-23T05:02:49;96918.69;;;22.61;54.03
10135;BME280;5107;48.850;8.924;2022-07-23T05:05:16;96924.84;;;22.45;54.49
10135;BME280;5107;48.850;8.924;2022-07-23T05:07:44;96932.50;;;22.53;55.55
10135;BME280;5107;48.850;8.924;2022-07-23T05:10:11;96929.50;;;22.78;56.21
10135;BME280;5107;48.850;8.924;2022-07-23T05:12:39;96943.22;;;22.93;57.54
10135;BME280;5107;48.850;8.924;2022-07-23T05:15:06;96935.00;;;22.99;58.71
10135;BME280;5107;48.850;8.924;2022-07-23T05:17:33;96928.03;;;22.87;59.46
10135;BME280;5107;48.850;8.924;2022-07-23T05:20:06;96922.97;;;22.74;59.60
10135;BME280;5107;48.850;8.924;2022-07-23T05:22:34;96925.31;;;22.70;59.76
10135;BME280;5107;48.850;8.924;2022-07-23T05:25:01;96928.69;;;22.77;61.17
10135;BME280;5107;48.850;8.924;2022-07-23T05:27:28;96939.47;;;22.65;62.38
10135;BME280;5107;48.850;8.924;2022-07-23T05:29:56;96949.38;;;22.65;64.34
10135;BME280;5107;48.850;8.924;2022-07-23T05:32:24;96949.38;;;22.65;64.45
10135;BME280;5107;48.850;8.924;2022-07-23T05:35:01;96954.25;;;22.68;65.14
10135;BME280;5107;48.850;8.924;2022-07-23T05:37:29;96959.38;;;22.69;64.05
10135;BME280;5107;48.850;8.924;2022-07-23T05:40:02;96957.03;;;22.73;64.28
10135;BME280;5107;48.850;8.924;2022-07-23T05:42:29;96966.28;;;22.65;65.55
10135;BME280;5107;48.850;8.924;2022-07-23T05:44:57;96980.28;;;22.67;64.99
10135;BME280;5107;48.850;8.924;2022-07-23T05:47:24;96991.22;;;22.38;63.96
10135;BME280;5107;48.850;8.924;2022-07-23T05:49:51;96990.81;;;22.17;64.57
10135;BME280;5107;48.850;8.924;2022-07-23T05:52:34;96982.88;;;22.11;64.34
10135;BME280;5107;48.850;8.924;2022-07-23T05:55:28;96968.44;;;21.88;65.50
10135;BME280;5107;48.850;8.924;2022-07-23T05:57:58;96969.03;;;21.90;64.52
10135;BME280;5107;48.850;8.924;2022-07-23T06:00:27;96980.34;;;21.81;65.40
10135;BME280;5107;48.850;8.924;2022-07-23T06:02:55;96973.00;;;22.00;62.94
10135;BME280;5107;48.850;8.924;2022-07-23T06:05:24;96966.66;;;21.94;63.34
10135;BME280;5107;48.850;8.924;2022-07-23T06:07:54;96959.47;;;22.06;61.16
10135;BME280;5107;48.850;8.924;2022-07-23T06:10:23;96957.13;;;22.10;60.03
10135;BME280;5107;48.850;8.924;2022-07-23T06:12:51;96947.22;;;22.10;62.14
10135;BME280;5107;48.850;8.924;2022-07-23T06:15:18;96962.69;;;22.31;62.44
10135;BME280;5107;48.850;8.924;2022-07-23T06:17:46;96976.09;;;23.00;61.94
10135;BME280;5107;48.850;8.924;2022-07-23T06:20:13;96981.81;;;23.70;60.54
10135;BME280;5107;48.850;8.924;2022-07-23T06:22:41;96989.69;;;24.32;56.67
10135;BME280;5107;48.850;8.924;2022-07-23T06:25:10;96986.28;;;24.85;54.05
10135;BME280;5107;48.850;8.924;2022-07-23T06:27:37;96991.38;;;25.36;52.48
10135;BME280;5107;48.850;8.924;2022-07-23T06:30:06;96991.28;;;25.25;51.60
10135;BME280;5107;48.850;8.924;2022-07-23T06:32:34;97003.00;;;25.73;50.01
10135;BME280;5107;48.850;8.924;2022-07-23T06:35:01;97016.03;;;25.81;49.19
10135;BME280;5107;48.850;8.924;2022-07-23T06:37:28;97010.53;;;25.12;52.38
10135;BME280;5107;48.850;8.924;2022-07-23T06:39:55;97035.81;;;24.41;54.67
10135;BME280;5107;48.850;8.924;2022-07-23T06:42:24;97046.56;;;23.69;56.22
10135;BME280;5107;48.850;8.924;2022-07-23T06:44:57;97050.63;;;23.10;59.50
10135;BME280;5107;48.850;8.924;2022-07-23T06:47:24;97052.63;;;22.74;62.10
10135;BME280;5107;48.850;8.924;2022-07-23T06:49:51;97049.72;;;22.52;64.25
10135;BME280;5107;48.850;8.924;2022-07-23T06:52:18;97053.63;;;22.33;66.49
10135;BME280;5107;48.850;8.924;2022-07-23T06:54:45;97044.66;;;22.04;68.45
10135;BME280;5107;48.850;8.924;2022-07-23T06:57:12;97042.91;;;21.75;69.73
10135;BME280;5107;48.850;8.924;2022-07-23T06:59:41;97012.72;;;21.79;70.15
10135;BME280;5107;48.850;8.924;2022-07-23T07:02:09;97003.97;;;21.61;70.05
10135;BME280;5107;48.850;8.924;2022-07-23T07:04:36;97008.69;;;21.24;71.21
10135;BME280;5107;48.850;8.924;2022-07-23T07:07:03;97022.22;;;20.99;73.02
10135;BME280;5107;48.850;8.924;2022-07-23T07:09:30;97024.72;;;20.82;73.75
10135;BME280;5107;48.850;8.924;2022-07-23T07:11:57;97025.66;;;20.88;74.05
10135;BME280;5107;48.850;8.924;2022-07-23T07:14:25;97025.34;;;20.96;73.84
10135;BME280;5107;48.850;8.924;2022-07-23T07:16:53;97033.56;;;20.82;74.99
10135;BME280;5107;48.850;8.924;2022-07-23T07:19:20;97038.91;;;20.82;76.21
10135;BME280;5107;48.850;8.924;2022-07-23T07:21:47;97025.38;;;21.07;75.55
10135;BME280;5107;48.850;8.924;2022-07-23T07:24:14;97014.06;;;21.24;73.71
10135;BME280;5107;48.850;8.924;2022-07-23T07:26:41;97010.63;;;21.16;73.92
10135;BME280;5107;48.850;8.924;2022-07-23T07:29:09;97019.53;;;21.17;72.28
10135;BME280;5107;48.850;8.924;2022-07-23T07:31:36;97022.97;;;20.88;73.85
10135;BME280;5107;48.850;8.924;2022-07-23T07:34:04;97035.31;;;20.40;74.60
10135;BME280;5107;48.850;8.924;2022-07-23T07:36:31;97036.63;;;20.31;75.83
10135;BME280;5107;48.850;8.924;2022-07-23T07:38:59;97041.75;;;20.51;75.89
10135;BME280;5107;48.850;8.924;2022-07-23T07:41:26;97057.03;;;20.26;76.52
10135;BME280;5107;48.850;8.924;2022-07-23T07:43:53;97063.56;;;20.12;76.35
10135;BME280;5107;48.850;8.924;2022-07-23T07:46:20;97056.47;;;20.24;78.10
10135;BME280;5107;48.850;8.924;2022-07-23T07:48:49;97048.44;;;20.42;76.63
10135;BME280;5107;48.850;8.924;2022-07-23T07:51:18;97055.63;;;20.60;77.81
10135;BME280;5107;48.850;8.924;2022-07-23T07:53:45;97048.41;;;20.78;77.56
10135;BME280;5107;48.850;8.924;2022-07-23T07:56:12;97039.16;;;20.93;76.04
10135;BME280;5107;48.850;8.924;2022-07-23T07:58:39;97044.50;;;20.93;75.70
10135;BME280;5107;48.850;8.924;2022-07-23T08:01:06;97052.53;;;20.93;75.00
10135;BME280;5107;48.850;8.924;2022-07-23T08:03:34;97051.34;;;21.07;73.71
10135;BME280;5107;48.850;8.924;2022-07-23T08:06:01;97056.84;;;21.53;72.87
10135;BME280;5107;48.850;8.924;2022-07-23T08:08:29;97053.50;;;21.93;71.66
10135;BME280;5107;48.850;8.924;2022-07-23T08:10:56;97055.44;;;22.56;69.24
10135;BME280;5107;48.850;8.924;2022-07-23T08:13:23;97055.91;;;22.76;68.18
10135;BME280;5107;48.850;8.924;2022-07-23T08:15:51;97059.25;;;23.12;66.01
10135;BME280;5107;48.850;8.924;2022-07-23T08:18:20;97058.16;;;23.24;63.88
10135;BME280;5107;48.850;8.924;2022-07-23T08:20:47;97062.03;;;23.17;60.93
10135;BME280;5107;48.850;8.924;2022-07-23T08:23:14;97063.72;;;23.06;59.89
10135;BME280;5107;48.850;8.924;2022-07-23T08:25:46;97074.44;;;23.18;60.24
10135;BME280;5107;48.850;8.924;2022-07-23T08:28:15;97073.88;;;23.32;58.57
10135;BME280;5107;48.850;8.924;2022-07-23T08:30:45;97074.66;;;23.61;61.89
10135;BME280;5107;48.850;8.924;2022-07-23T08:33:14;97080.78;;;23.57;59.70
10135;BME280;5107;48.850;8.924;2022-07-23T08:35:44;97073.44;;;23.24;61.59
10135;BME280;5107;48.850;8.924;2022-07-23T08:38:14;97069.41;;;23.38;60.64
10135;BME280;5107;48.850;8.924;2022-07-23T08:40:51;97069.94;;;24.18;58.54
10135;BME280;5107;48.850;8.924;2022-07-23T08:43:21;97062.31;;;24.71;54.50
10135;BME280;5107;48.850;8.924;2022-07-23T08:45:51;97059.81;;;25.08;54.06
10135;BME280;5107;48.850;8.924;2022-07-23T08:48:20;97059.81;;;25.35;59.27
10135;BME280;5107;48.850;8.924;2022-07-23T08:50:50;97066.09;;;24.91;54.66
10135;BME280;5107;48.850;8.924;2022-07-23T08:53:18;97067.00;;;25.24;54.13
10135;BME280;5107;48.850;8.924;2022-07-23T08:55:46;97058.91;;;25.83;52.78
10135;BME280;5107;48.850;8.924;2022-07-23T08:58:16;97055.91;;;25.79;51.83
10135;BME280;5107;48.850;8.924;2022-07-23T09:00:47;97058.00;;;25.67;52.46
10135;BME280;5107;48.850;8.924;2022-07-23T09:03:17;97060.75;;;25.18;52.04
10135;BME280;5107;48.850;8.924;2022-07-23T09:05:44;97061.56;;;24.97;52.05
10135;BME280;5107;48.850;8.924;2022-07-23T09:08:13;97063.06;;;25.10;52.48
10135;BME280;5107;48.850;8.924;2022-07-23T09:10:47;97064.09;;;25.89;50.53
10135;BME280;5107;48.850;8.924;2022-07-23T09:13:35;97059.41;;;25.75;49.01
10135;BME280;5107;48.850;8.924;2022-07-23T09:16:06;97067.00;;;25.51;50.56
10135;BME280;5107;48.850;8.924;2022-07-23T09:18:40;97065.94;;;25.57;50.29
10135;BME280;5107;48.850;8.924;2022-07-23T09:21:15;97073.78;;;25.85;51.10
10135;BME280;5107;48.850;8.924;2022-07-23T09:23:45;97065.91;;;26.21;50.17
10135;BME280;5107;48.850;8.924;2022-07-23T09:26:29;97061.69;;;25.61;49.55
10135;BME280;5107;48.850;8.924;2022-07-23T09:29:10;97057.53;;;25.21;51.87
10135;BME280;5107;48.850;8.924;2022-07-23T09:31:49;97060.31;;;25.31;53.84
10135;BME280;5107;48.850;8.924;2022-07-23T09:34:20;97069.59;;;26.04;55.13
10135;BME280;5107;48.850;8.924;2022-07-23T09:36:48;97058.94;;;26.25;50.77
10135;BME280;5107;48.850;8.924;2022-07-23T09:39:28;97063.75;;;26.18;50.22
10135;BME280;5107;48.850;8.924;2022-07-23T09:41:56;97069.34;;;26.06;48.83
10135;BME280;5107;48.850;8.924;2022-07-23T09:44:25;97063.75;;;26.60;48.62
10135;BME280;5107;48.850;8.924;2022-07-23T09:46:58;97072.13;;;27.26;48.50
10135;BME280;5107;48.850;8.924;2022-07-23T09:49:26;97067.03;;;27.54;47.64
10135;BME280;5107;48.850;8.924;2022-07-23T09:51:56;97066.50;;;27.63;43.67
10135;BME280;5107;48.850;8.924;2022-07-23T09:54:30;97065.84;;;27.00;44.69
10135;BME280;5107;48.850;8.924;2022-07-23T09:57:01;97059.91;;;27.03;46.72
10135;BME280;5107;48.850;8.924;2022-07-23T09:59:31;97069.16;;;27.32;46.67
10135;BME280;5107;48.850;8.924;2022-07-23T10:02:00;97068.97;;;27.69;46.92
10135;BME280;5107;48.850;8.924;2022-07-23T10:04:34;97074.31;;;27.39;47.00
10135;BME280;5107;48.850;8.924;2022-07-23T10:07:08;97061.13;;;27.68;45.98
10135;BME280;5107;48.850;8.924;2022-07-23T10:09:55;97074.09;;;27.76;45.55
10135;BME280;5107;48.850;8.924;2022-07-23T10:12:49;97073.31;;;27.85;44.49
10135;BME280;5107;48.850;8.924;2022-07-23T10:15:37;97072.09;;;27.20;43.32
10135;BME280;5107;48.850;8.924;2022-07-23T10:18:06;97075.69;;;27.51;43.96
10135;BME280;5107;48.850;8.924;2022-07-23T10:20:34;97069.41;;;27.31;44.95
10135;BME280;5107;48.850;8.924;2022-07-23T10:23:07;97068.91;;;27.34;46.37
10135;BME280;5107;48.850;8.924;2022-07-23T10:25:44;97067.88;;;27.90;48.28
10135;BME280;5107;48.850;8.924;2022-07-23T10:29:02;97073.81;;;28.08;44.10
10135;BME280;5107;48.850;8.924;2022-07-23T10:31:52;97066.53;;;28.03;43.67
10135;BME280;5107;48.850;8.924;2022-07-23T10:34:30;97060.44;;;28.77;43.86
10135;BME280;5107;48.850;8.924;2022-07-23T10:37:12;97066.25;;;29.04;42.65
10135;BME280;5107;48.850;8.924;2022-07-23T10:39:42;97068.59;;;29.26;40.19
10135;BME280;5107;48.850;8.924;2022-07-23T10:42:11;97067.97;;;28.90;41.49
10135;BME280;5107;48.850;8.924;2022-07-23T10:44:40;97063.88;;;28.98;41.38
10135;BME280;5107;48.850;8.924;2022-07-23T10:47:11;97063.81;;;28.23;41.26
10135;BME280;5107;48.850;8.924;2022-07-23T10:50:21;97060.78;;;29.15;41.97
10135;BME280;5107;48.850;8.924;2022-07-23T10:53:14;97067.06;;;27.95;42.07
10135;BME280;5107;48.850;8.924;2022-07-23T10:55:48;97068.09;;;28.45;43.36
10135;BME280;5107;48.850;8.924;2022-07-23T10:58:47;97064.56;;;28.49;42.40
10135;BME280;5107;48.850;8.924;2022-07-23T11:01:32;97070.31;;;27.72;42.40
10135;BME280;5107;48.850;8.924;2022-07-23T11:04:02;97071.94;;;27.78;43.36
10135;BME280;5107;48.850;8.924;2022-07-23T11:07:06;97073.00;;;28.22;43.91
10135;BME280;5107;48.850;8.924;2022-07-23T11:09:40;97062.56;;;28.80;43.36
10135;BME280;5107;48.850;8.924;2022-07-23T11:12:34;97069.91;;;29.39;41.19
10135;BME280;5107;48.850;8.924;2022-07-23T11:15:07;97059.31;;;29.76;41.30
10135;BME280;5107;48.850;8.924;2022-07-23T11:17:37;97064.19;;;29.46;40.37
10135;BME280;5107;48.850;8.924;2022-07-23T11:20:20;97063.00;;;29.08;40.06
10135;BME280;5107;48.850;8.924;2022-07-23T11:22:51;97060.94;;;29.38;41.64
10135;BME280;5107;48.850;8.924;2022-07-23T11:25:34;97060.00;;;29.58;40.82
10135;BME280;5107;48.850;8.924;2022-07-23T11:28:12;97049.97;;;29.93;40.82
10135;BME280;5107;48.850;8.924;2022-07-23T11:30:43;97056.81;;;29.85;40.13
10135;BME280;5107;48.850;8.924;2022-07-23T11:33:19;97056.53;;;29.03;39.95
10135;BME280;5107;48.850;8.924;2022-07-23T11:35:59;97052.31;;;29.70;41.70
10135;BME280;5107;48.850;8.924;2022-07-23T11:38:28;97046.72;;;29.57;41.78
10135;BME280;5107;48.850;8.924;2022-07-23T11:40:57;97046.81;;;28.92;40.49
10135;BME280;5107;48.850;8.924;2022-07-23T11:43:25;97050.00;;;29.04;42.37
10135;BME280;5107;48.850;8.924;2022-07-23T11:45:56;97051.09;;;29.53;42.12
10135;BME280;5107;48.850;8.924;2022-07-23T11:48:26;97046.03;;;29.31;42.05
10135;BME280;5107;48.850;8.924;2022-07-23T11:50:56;97043.25;;;29.02;41.04
10135;BME280;5107;48.850;8.924;2022-07-23T11:53:24;97048.19;;;29.39;41.83
10135;BME280;5107;48.850;8.924;2022-07-23T11:55:52;97040.25;;;29.53;41.81
10135;BME280;5107;48.850;8.924;2022-07-23T11:58:21;97044.25;;;29.60;41.06
10135;BME280;5107;48.850;8.924;2022-07-23T12:00:48;97039.53;;;29.32;41.23
10135;BME280;5107;48.850;8.924;2022-07-23T12:03:16;97043.72;;;29.58;41.05
10135;BME280;5107;48.850;8.924;2022-07-23T12:05:43;97045.88;;;29.61;40.62
10135;BME280;5107;48.850;8.924;2022-07-23T12:08:12;97042.16;;;29.47;40.99
10135;BME280;5107;48.850;8.924;2022-07-23T12:10:41;97027.31;;;28.90;42.04
10135;BME280;5107;48.850;8.924;2022-07-23T12:13:11;97043.47;;;29.55;40.17
10135;BME280;5107;48.850;8.924;2022-07-23T12:15:41;97042.91;;;29.92;40.50
10135;BME280;5107;48.850;8.924;2022-07-23T12:18:11;97037.00;;;30.13;39.30
10135;BME280;5107;48.850;8.924;2022-07-23T12:20:40;97036.97;;;30.18;40.35
10135;BME280;5107;48.850;8.924;2022-07-23T12:23:14;97034.72;;;29.63;39.01
10135;BME280;5107;48.850;8.924;2022-07-23T12:25:44;97038.69;;;29.75;39.88
10135;BME280;5107;48.850;8.924;2022-07-23T12:28:14;97038.41;;;29.43;39.64
10135;BME280;5107;48.850;8.924;2022-07-23T12:30:45;97025.59;;;29.10;40.08
10135;BME280;5107;48.850;8.924;2022-07-23T12:33:22;97021.06;;;28.90;40.79
10135;BME280;5107;48.850;8.924;2022-07-23T12:35:51;97029.16;;;29.00;41.12
10135;BME280;5107;48.850;8.924;2022-07-23T12:38:24;97027.22;;;29.11;40.71
10135;BME280;5107;48.850;8.924;2022-07-23T12:40:53;97034.41;;;28.81;40.53
10135;BME280;5107;48.850;8.924;2022-07-23T12:43:24;97030.75;;;29.06;40.29
10135;BME280;5107;48.850;8.924;2022-07-23T12:45:54;97030.09;;;29.24;40.02
10135;BME280;5107;48.850;8.924;2022-07-23T12:48:25;97024.00;;;28.98;40.67
10135;BME280;5107;48.850;8.924;2022-07-23T12:50:58;97029.81;;;29.26;40.30
10135;BME280;5107;48.850;8.924;2022-07-23T12:53:29;97031.75;;;29.20;40.52
10135;BME280;5107;48.850;8.924;2022-07-23T12:56:00;97030.16;;;29.58;39.53
10135;BME280;5107;48.850;8.924;2022-07-23T12:58:41;97041.16;;;29.33;39.56
10135;BME280;5107;48.850;8.924;2022-07-23T13:01:10;97041.06;;;29.53;39.01
10135;BME280;5107;48.850;8.924;2022-07-23T13:04:00;97041.00;;;29.58;39.92
10135;BME280;5107;48.850;8.924;2022-07-23T13:06:29;97039.56;;;29.37;38.62
10135;BME280;5107;48.850;8.924;2022-07-23T13:08:58;97037.25;;;29.54;39.35
10135;BME280;5107;48.850;8.924;2022-07-23T13:11:25;97041.28;;;29.13;38.66
10135;BME280;5107;48.850;8.924;2022-07-23T13:13:52;97037.56;;;28.98;39.33
10135;BME280;5107;48.850;8.924;2022-07-23T13:16:20;97040.63;;;29.31;40.30
10135;BME280;5107;48.850;8.924;2022-07-23T13:18:47;97037.97;;;29.65;40.67
10135;BME280;5107;48.850;8.924;2022-07-23T13:21:14;97032.31;;;29.61;40.12
10135;BME280;5107;48.850;8.924;2022-07-23T13:23:42;97036.53;;;29.77;39.61
10135;BME280;5107;48.850;8.924;2022-07-23T13:26:11;97044.22;;;30.28;38.23